createdAt,value
2022-12-23T00:02:02.542Z,99289.03
2022-12-23T00:04:29.010Z,99288.53
2022-12-23T00:06:55.437Z,99294.53
2022-12-23T00:09:21.865Z,99297.03
2022-12-23T00:11:49.107Z,99292.56
2022-12-23T00:14:21.182Z,99287.41
2022-12-23T00:16:48.246Z,99282.22
2022-12-23T00:19:15.598Z,99287.78
2022-12-23T00:21:41.994Z,99290.28
2022-12-23T00:24:08.458Z,99293.31
2022-12-23T00:26:37.591Z,99307.28
2022-12-23T00:29:03.999Z,99299.22
2022-12-23T00:31:30.458Z,99301.94
2022-12-23T00:33:57.731Z,99298.81
2022-12-23T00:36:25.107Z,99304.25
2022-12-23T00:38:54.340Z,99313.91
2022-12-23T00:41:20.713Z,99313.91
2022-12-23T00:46:44.964Z,99314.28
2022-12-23T00:49:12.207Z,99307.63
2022-12-23T00:51:40.464Z,99317.13
2022-12-23T00:54:06.869Z,99319.91
2022-12-23T00:56:33.216Z,99322.72
2022-12-23T01:01:44.393Z,99323.47
2022-12-23T01:04:10.893Z,99329.84
2022-12-23T01:06:37.287Z,99314.78
2022-12-23T01:09:06.463Z,99318.59
2022-12-23T01:11:32.882Z,99317.16
2022-12-23T01:16:53.113Z,99323.38
2022-12-23T01:19:20.376Z,99326.66
2022-12-23T01:21:48.622Z,99330.94
2022-12-23T01:24:15.061Z,99332.56
2022-12-23T01:26:42.371Z,99338.13
2022-12-23T01:32:03.437Z,99339.28
2022-12-23T01:34:36.343Z,99336.13
2022-12-23T01:37:04.188Z,99337.69
2022-12-23T01:39:30.572Z,99334.50
2022-12-23T01:41:59.693Z,99340.81
2022-12-23T01:47:10.849Z,99338.84
2022-12-23T01:49:38.091Z,99333.34
2022-12-23T01:52:04.464Z,99330.13
2022-12-23T01:54:30.842Z,99339.28
2022-12-23T01:56:57.262Z,99346.38
2022-12-23T02:02:07.530Z,99337.69
2022-12-23T02:04:33.946Z,99350.81
2022-12-23T02:07:01.246Z,99350.38
2022-12-23T02:09:28.461Z,99346.38
2022-12-23T02:11:55.686Z,99360.78
2022-12-23T02:17:16.202Z,99360.22
2022-12-23T02:19:42.603Z,99355.56
2022-12-23T02:22:09.806Z,99355.16
2022-12-23T02:24:37.114Z,99348.81
2022-12-23T02:27:03.474Z,99359.22
2022-12-23T02:32:24.526Z,99366.69
2022-12-23T02:34:51.783Z,99372.63
2022-12-23T02:37:18.137Z,99372.63
2022-12-23T02:39:44.506Z,99378.25
2022-12-23T02:42:10.871Z,99373.09
2022-12-23T02:47:21.147Z,99377.00
2022-12-23T02:49:47.510Z,99381.72
2022-12-23T02:52:14.753Z,99380.16
2022-12-23T02:54:41.102Z,99384.09
2022-12-23T02:57:08.320Z,99392.78
2022-12-23T03:02:18.863Z,99391.22
2022-12-23T03:04:45.369Z,99394.41
2022-12-23T03:07:18.210Z,99393.25
2022-12-23T03:09:44.911Z,99386.94
2022-12-23T03:12:11.254Z,99392.47
2022-12-23T03:17:24.169Z,99390.06
2022-12-23T03:19:50.500Z,99384.81
2022-12-23T03:22:17.693Z,99389.72
2022-12-23T03:24:44.039Z,99385.34
2022-12-23T03:27:10.437Z,99396.81
2022-12-23T03:32:30.388Z,99400.41
2022-12-23T03:34:56.763Z,99382.47
2022-12-23T03:37:23.099Z,99394.72
2022-12-23T03:39:49.471Z,99395.50
2022-12-23T03:42:16.671Z,99407.16
2022-12-23T03:47:37.088Z,99408.31
2022-12-23T03:50:03.456Z,99404.69
2022-12-23T03:52:29.785Z,99401.47
2022-12-23T03:54:56.116Z,99412.16
2022-12-23T03:57:22.448Z,99401.06
2022-12-23T04:02:42.555Z,99410.16
2022-12-23T04:05:08.984Z,99409.47
2022-12-23T04:07:35.355Z,99395.56
2022-12-23T04:10:01.762Z,99400.34
2022-12-23T04:12:28.100Z,99405.09
2022-12-23T04:17:38.457Z,99399.56
2022-12-23T04:20:04.792Z,99403.41
2022-12-23T04:22:31.130Z,99406.25
2022-12-23T04:24:57.468Z,99402.72
2022-12-23T04:27:23.847Z,99404.34
2022-12-23T04:29:50.175Z,99403.91
2022-12-23T04:32:16.527Z,99414.25
2022-12-23T04:34:42.884Z,99406.72
2022-12-23T04:37:09.228Z,99422.63
2022-12-23T04:39:35.556Z,99423.41
2022-12-23T04:42:01.882Z,99426.59
2022-12-23T04:44:28.302Z,99423.47
2022-12-23T04:46:54.713Z,99425.41
2022-12-23T04:49:21.068Z,99422.19
2022-12-23T04:51:47.410Z,99416.22
2022-12-23T04:54:13.727Z,99414.28
2022-12-23T04:56:40.090Z,99416.25
2022-12-23T04:59:06.439Z,99418.56
2022-12-23T05:01:32.986Z,99417.03
2022-12-23T05:03:59.452Z,99418.56
2022-12-23T05:06:25.795Z,99423.78
2022-12-23T05:08:53.008Z,99430.53
2022-12-23T05:11:19.344Z,99422.19
2022-12-23T05:13:45.750Z,99434.47
2022-12-23T05:16:12.105Z,99440.38
2022-12-23T05:18:38.446Z,99439.25
2022-12-23T05:21:04.799Z,99439.25
2022-12-23T05:23:31.194Z,99439.28
2022-12-23T05:25:57.636Z,99443.22
2022-12-23T05:28:23.966Z,99443.50
2022-12-23T05:30:50.300Z,99439.88
2022-12-23T05:36:11.313Z,99442.81
2022-12-23T05:38:37.650Z,99438.44
2022-12-23T05:41:03.986Z,99449.13
2022-12-23T05:43:30.408Z,99442.84
2022-12-23T05:45:56.773Z,99443.56
2022-12-23T05:51:07.339Z,99447.19
2022-12-23T05:53:33.662Z,99468.63
2022-12-23T05:56:00.102Z,99462.19
2022-12-23T05:58:26.471Z,99461.88
2022-12-23T06:00:55.560Z,99463.06
2022-12-23T06:06:17.002Z,99470.03
2022-12-23T06:08:46.415Z,99462.81
2022-12-23T06:11:14.686Z,99462.47
2022-12-23T06:13:42.952Z,99470.38
2022-12-23T06:16:09.455Z,99471.91
2022-12-23T06:21:24.380Z,99474.00
2022-12-23T06:23:51.854Z,99487.84
2022-12-23T06:26:19.375Z,99475.53
2022-12-23T06:28:46.028Z,99490.94
2022-12-23T06:31:12.868Z,99490.63
2022-12-23T06:36:40.062Z,99491.78
2022-12-23T06:39:06.477Z,99492.19
2022-12-23T06:41:34.755Z,99497.81
2022-12-23T06:44:01.178Z,99494.91
2022-12-23T06:46:27.702Z,99494.47
2022-12-23T06:51:48.625Z,99500.81
2022-12-23T06:54:15.151Z,99494.84
2022-12-23T06:56:41.585Z,99507.59
2022-12-23T06:59:08.859Z,99510.75
2022-12-23T07:01:36.174Z,99512.75
2022-12-23T07:06:47.385Z,99510.66
2022-12-23T07:09:14.936Z,99514.66
2022-12-23T07:11:42.215Z,99517.56
2022-12-23T07:14:09.470Z,99515.63
2022-12-23T07:16:35.996Z,99522.06
2022-12-23T07:21:56.948Z,99529.38
2022-12-23T07:24:25.232Z,99521.25
2022-12-23T07:26:51.768Z,99519.00
2022-12-23T07:29:19.223Z,99519.44
2022-12-23T07:31:45.828Z,99524.50
2022-12-23T07:36:56.350Z,99518.00
2022-12-23T07:39:22.858Z,99517.47
2022-12-23T07:41:52.764Z,99509.22
2022-12-23T07:44:30.360Z,99515.75
2022-12-23T07:46:56.877Z,99505.44
2022-12-23T07:52:08.470Z,99503.31
2022-12-23T07:54:34.930Z,99509.16
2022-12-23T07:57:01.517Z,99513.53
2022-12-23T07:59:28.929Z,99517.44
2022-12-23T08:01:56.437Z,99532.97
2022-12-23T08:07:17.913Z,99533.34
2022-12-23T08:09:44.392Z,99532.56
2022-12-23T08:12:11.788Z,99524.56
2022-12-23T08:14:38.386Z,99526.94
2022-12-23T08:17:04.962Z,99525.41
2022-12-23T08:22:17.562Z,99521.72
2022-12-23T08:24:44.120Z,99527.72
2022-12-23T08:27:11.560Z,99518.09
2022-12-23T08:29:38.040Z,99513.31
2022-12-23T08:32:04.524Z,99523.66
2022-12-23T08:37:25.104Z,99523.16
2022-12-23T08:39:51.585Z,99516.78
2022-12-23T08:42:18.972Z,99515.19
2022-12-23T08:44:45.522Z,99514.75
2022-12-23T08:47:11.994Z,99507.63
2022-12-23T08:52:23.495Z,99507.13
2022-12-23T08:54:49.956Z,99504.00
2022-12-23T08:57:16.443Z,99501.22
2022-12-23T08:59:42.925Z,99499.63
2022-12-23T09:02:10.574Z,99492.81
2022-12-23T09:07:21.255Z,99483.25
2022-12-23T09:09:47.697Z,99484.09
2022-12-23T09:12:15.121Z,99491.00
2022-12-23T09:14:42.509Z,99490.03
2022-12-23T09:17:09.001Z,99484.94
2022-12-23T09:22:29.345Z,99479.13
2022-12-23T09:24:59.887Z,99477.53
2022-12-23T09:27:30.543Z,99475.63
2022-12-23T09:29:57.085Z,99475.09
2022-12-23T09:32:23.584Z,99471.00
2022-12-23T09:37:34.290Z,99451.09
2022-12-23T09:40:01.706Z,99457.34
2022-12-23T09:42:28.262Z,99453.38
2022-12-23T09:44:55.647Z,99457.38
2022-12-23T09:47:22.114Z,99449.34
2022-12-23T09:49:49.544Z,99445.25
2022-12-23T09:52:16.008Z,99447.66
2022-12-23T09:54:42.579Z,99455.66
2022-12-23T09:57:09.056Z,99429.97
2022-12-23T09:59:36.443Z,99444.56
2022-12-23T10:02:03.944Z,99444.13
2022-12-23T10:04:31.402Z,99436.16
2022-12-23T10:07:02.773Z,99434.81
2022-12-23T10:09:30.638Z,99431.59
2022-12-23T10:11:58.015Z,99432.38
2022-12-23T10:14:24.447Z,99433.13
2022-12-23T10:16:51.067Z,99425.84
2022-12-23T10:19:17.537Z,99431.19
2022-12-23T10:21:47.642Z,99423.72
2022-12-23T10:24:15.519Z,99420.66
2022-12-23T10:26:42.908Z,99421.97
2022-12-23T10:29:12.817Z,99420.00
2022-12-23T10:31:42.882Z,99417.31
2022-12-23T10:34:09.440Z,99413.03
2022-12-23T10:36:36.836Z,99412.28
2022-12-23T10:39:03.345Z,99403.88
2022-12-23T10:41:30.738Z,99396.06
2022-12-23T10:43:58.180Z,99395.59
2022-12-23T10:46:25.592Z,99397.69
2022-12-23T10:48:52.155Z,99402.34
2022-12-23T10:51:19.078Z,99396.09
2022-12-23T10:53:45.561Z,99388.63
2022-12-23T10:56:12.053Z,99404.81
2022-12-23T10:58:39.474Z,99395.31
2022-12-23T11:01:13.897Z,99395.22
2022-12-23T11:03:43.853Z,99387.06
2022-12-23T11:06:10.564Z,99389.78
2022-12-23T11:11:23.182Z,99372.78
2022-12-23T11:13:50.557Z,99370.03
2022-12-23T11:16:18.044Z,99365.41
2022-12-23T11:18:44.546Z,99370.91
2022-12-23T11:21:10.986Z,99361.84
2022-12-23T11:26:33.469Z,99350.00
2022-12-23T11:28:59.927Z,99349.91
2022-12-23T11:31:26.467Z,99344.41
2022-12-23T11:33:53.150Z,99345.19
2022-12-23T11:36:20.470Z,99339.69
2022-12-23T11:41:31.917Z,99332.53
2022-12-23T11:43:58.371Z,99330.97
2022-12-23T11:46:24.984Z,99336.22
2022-12-23T11:48:54.767Z,99339.38
2022-12-23T11:51:21.594Z,99328.25
2022-12-23T11:56:33.236Z,99329.94
2022-12-23T11:59:00.639Z,99322.50
2022-12-23T12:01:27.974Z,99310.88
2022-12-23T12:03:54.439Z,99309.69
2022-12-23T12:06:21.847Z,99316.13
2022-12-23T12:11:36.584Z,99314.47
2022-12-23T12:14:03.904Z,99307.47
2022-12-23T12:16:31.317Z,99302.66
2022-12-23T12:18:58.761Z,99307.34
2022-12-23T12:21:26.099Z,99294.25
2022-12-23T12:26:36.880Z,99297.25
2022-12-23T12:29:03.367Z,99301.16
2022-12-23T12:31:30.069Z,99298.25
2022-12-23T12:33:57.543Z,99300.72
2022-12-23T12:36:24.084Z,99298.97
2022-12-23T12:41:45.512Z,99290.97
2022-12-23T12:44:12.923Z,99293.91
2022-12-23T12:46:42.083Z,99286.38
2022-12-23T12:49:08.565Z,99295.06
2022-12-23T12:51:35.952Z,99286.22
2022-12-23T12:56:58.057Z,99291.78
2022-12-23T12:59:24.987Z,99291.94
2022-12-23T13:01:52.429Z,99293.06
2022-12-23T13:04:19.093Z,99290.28
2022-12-23T13:06:46.449Z,99303.66
2022-12-23T13:11:59.062Z,99294.59
2022-12-23T13:14:25.504Z,99294.06
2022-12-23T13:16:52.933Z,99299.72
2022-12-23T13:19:19.399Z,99294.25
2022-12-23T13:21:45.874Z,99295.16
2022-12-23T13:26:56.475Z,99299.03
2022-12-23T13:29:26.182Z,99293.84
2022-12-23T13:31:53.589Z,99294.41
2022-12-23T13:34:20.995Z,99290.53
2022-12-23T13:36:48.406Z,99288.84
2022-12-23T13:42:09.276Z,99292.19
2022-12-23T13:44:36.012Z,99282.50
2022-12-23T13:47:02.468Z,99289.84
2022-12-23T13:49:28.928Z,99291.97
2022-12-23T13:51:56.338Z,99288.41
2022-12-23T13:57:16.722Z,99293.88
2022-12-23T13:59:44.138Z,99286.84
2022-12-23T14:02:10.776Z,99286.75
2022-12-23T14:04:37.393Z,99281.91
2022-12-23T14:07:04.864Z,99284.22
2022-12-23T14:12:15.333Z,99280.84
2022-12-23T14:14:42.741Z,99278.50
2022-12-23T14:17:09.235Z,99272.19
2022-12-23T14:19:35.793Z,99279.72
2022-12-23T14:22:02.277Z,99283.34
2022-12-23T14:24:28.815Z,99290.84
2022-12-23T14:26:55.327Z,99288.13
2022-12-23T14:29:22.696Z,99287.34
2022-12-23T14:31:49.172Z,99284.94
2022-12-23T14:34:16.625Z,99293.19
2022-12-23T14:36:43.180Z,99280.44
2022-12-23T14:39:09.745Z,99293.19
2022-12-23T14:41:36.206Z,99290.41
2022-12-23T14:44:04.267Z,99293.19
2022-12-23T14:46:30.853Z,99297.88
2022-12-23T14:49:22.473Z,99299.88
2022-12-23T14:51:44.790Z,99307.44
2022-12-23T14:54:12.266Z,99298.53
2022-12-23T14:56:38.744Z,99298.75
2022-12-23T14:59:06.836Z,99307.91
2022-12-23T15:01:33.466Z,99303.66
2022-12-23T15:04:01.727Z,99313.53
2022-12-23T15:06:28.550Z,99301.75
2022-12-23T15:08:55.024Z,99306.53
2022-12-23T15:11:21.527Z,99308.59
2022-12-23T15:13:48.003Z,99317.41
2022-12-23T15:16:15.617Z,99314.97
2022-12-23T15:18:42.124Z,99308.19
2022-12-23T15:21:08.619Z,99315.31
2022-12-23T15:23:36.210Z,99315.22
2022-12-23T15:26:02.673Z,99307.16
2022-12-23T15:28:30.067Z,99316.06
2022-12-23T15:30:56.757Z,99317.06
2022-12-23T15:34:00.935Z,99319.50
2022-12-23T15:36:10.907Z,99310.22
2022-12-23T15:38:38.350Z,99314.28
2022-12-23T15:41:05.790Z,99314.63
2022-12-23T15:43:32.273Z,99315.44
2022-12-23T15:45:58.775Z,99312.28
2022-12-23T15:48:26.227Z,99305.44
2022-12-23T15:50:52.719Z,99305.44
2022-12-23T15:53:20.356Z,99308.22
2022-12-23T15:55:46.878Z,99302.66
2022-12-23T16:01:07.296Z,99304.56
2022-12-23T16:03:34.817Z,99307.34
2022-12-23T16:06:01.427Z,99312.09
2022-12-23T16:08:30.451Z,99309.78
2022-12-23T16:10:57.038Z,99308.63
2022-12-23T16:16:18.590Z,99309.28
2022-12-23T16:18:47.794Z,99308.91
2022-12-23T16:21:14.774Z,99305.25
2022-12-23T16:23:41.434Z,99315.25
2022-12-23T16:26:08.051Z,99297.00
2022-12-23T16:31:19.806Z,99305.69
2022-12-23T16:33:47.286Z,99304.81
2022-12-23T16:36:13.948Z,99305.59
2022-12-23T16:38:41.433Z,99302.91
2022-12-23T16:41:08.315Z,99301.69
2022-12-23T16:46:28.596Z,99303.16
2022-12-23T16:48:56.115Z,99312.47
2022-12-23T16:51:23.567Z,99312.81
2022-12-23T16:53:51.000Z,99319.16
2022-12-23T16:56:18.403Z,99315.59
2022-12-23T17:01:40.123Z,99313.94
2022-12-23T17:04:06.736Z,99313.50
2022-12-23T17:06:34.163Z,99321.50
2022-12-23T17:09:02.593Z,99322.38
2022-12-23T17:11:30.844Z,99327.41
2022-12-23T17:16:53.784Z,99326.34
2022-12-23T17:19:27.911Z,99333.13
2022-12-23T17:21:55.594Z,99326.00
2022-12-23T17:24:22.182Z,99335.91
2022-12-23T17:26:48.671Z,99326.41
2022-12-23T17:32:00.363Z,99328.50
2022-12-23T17:34:27.063Z,99336.84
2022-12-23T17:36:53.642Z,99340.75
2022-12-23T17:39:21.116Z,99338.06
2022-12-23T17:41:47.647Z,99342.06
2022-12-23T17:46:59.913Z,99344.47
2022-12-23T17:49:26.445Z,99337.78
2022-12-23T17:51:52.966Z,99344.47
2022-12-23T17:54:20.426Z,99338.13
2022-12-23T17:56:47.950Z,99337.78
2022-12-23T18:01:59.867Z,99353.25
2022-12-23T18:04:26.375Z,99354.47
2022-12-23T18:06:53.785Z,99364.41
2022-12-23T18:09:21.277Z,99371.91
2022-12-23T18:11:47.756Z,99367.19
2022-12-23T18:17:09.491Z,99377.53
2022-12-23T18:19:36.961Z,99373.13
2022-12-23T18:22:03.497Z,99383.03
2022-12-23T18:24:30.023Z,99389.38
2022-12-23T18:26:57.449Z,99389.81
2022-12-23T18:32:19.789Z,99391.78
2022-12-23T18:34:46.249Z,99390.00
2022-12-23T18:37:12.717Z,99396.84
2022-12-23T18:39:40.100Z,99399.13
2022-12-23T18:42:06.898Z,99399.66
2022-12-23T18:47:18.447Z,99404.59
2022-12-23T18:49:45.016Z,99419.00
2022-12-23T18:52:12.468Z,99416.56
2022-12-23T18:54:39.884Z,99416.84
2022-12-23T18:57:07.437Z,99418.59
2022-12-23T19:02:19.145Z,99419.09
2022-12-23T19:04:45.686Z,99422.16
2022-12-23T19:07:12.183Z,99431.69
2022-12-23T19:09:38.685Z,99429.34
2022-12-23T19:12:05.257Z,99421.72
2022-12-23T19:17:16.025Z,99429.28
2022-12-23T19:19:42.517Z,99434.03
2022-12-23T19:22:09.056Z,99435.19
2022-12-23T19:24:42.468Z,99440.03
2022-12-23T19:27:14.365Z,99432.50
2022-12-23T19:32:36.013Z,99438.06
2022-12-23T19:35:03.507Z,99447.94
2022-12-23T19:37:30.029Z,99450.66
2022-12-23T19:39:56.727Z,99451.09
2022-12-23T19:42:23.272Z,99457.88
2022-12-23T19:44:49.796Z,99458.22
2022-12-23T19:47:16.315Z,99459.06
2022-12-23T19:49:42.822Z,99465.78
2022-12-23T19:52:09.361Z,99469.78
2022-12-23T19:54:35.844Z,99471.78
2022-12-23T19:57:03.292Z,99468.22
2022-12-23T19:59:29.814Z,99469.78
2022-12-23T20:01:56.419Z,99471.44
2022-12-23T20:04:22.977Z,99472.56
2022-12-23T20:06:49.495Z,99478.47
2022-12-23T20:09:16.175Z,99481.25
2022-12-23T20:11:42.697Z,99478.47
2022-12-23T20:14:09.233Z,99475.25
2022-12-23T20:16:35.786Z,99476.56
2022-12-23T20:19:03.280Z,99483.25
2022-12-23T20:21:29.801Z,99484.84
2022-12-23T20:23:56.297Z,99491.16
2022-12-23T20:26:22.886Z,99499.94
2022-12-23T20:28:49.410Z,99491.94
2022-12-23T20:31:16.410Z,99485.69
2022-12-23T20:33:42.949Z,99499.16
2022-12-23T20:36:11.250Z,99493.53
2022-12-23T20:38:38.056Z,99489.59
2022-12-23T20:41:05.578Z,99498.72
2022-12-23T20:43:33.803Z,99496.66
2022-12-23T20:46:02.148Z,99500.22
2022-12-23T20:48:33.749Z,99493.25
2022-12-23T20:51:02.887Z,99495.03
2022-12-23T20:53:31.131Z,99486.72
2022-12-23T20:55:58.702Z,99487.31
2022-12-23T20:58:26.216Z,99489.72
2022-12-23T21:00:54.474Z,99483.13
2022-12-23T21:06:17.015Z,99483.13
2022-12-23T21:08:43.685Z,99476.97
2022-12-23T21:11:10.248Z,99483.13
2022-12-23T21:13:36.803Z,99485.53
2022-12-23T21:16:04.505Z,99484.38
2022-12-23T21:21:16.179Z,99483.03
2022-12-23T21:23:42.656Z,99494.00
2022-12-23T21:26:09.194Z,99488.41
2022-12-23T21:28:35.702Z,99489.09
2022-12-23T21:31:02.319Z,99478.91
2022-12-23T21:36:22.982Z,99486.25
2022-12-23T21:38:49.763Z,99494.66
2022-12-23T21:41:17.241Z,99492.94
2022-12-23T21:43:43.797Z,99499.22
2022-12-23T21:46:10.336Z,99493.25
2022-12-23T21:51:20.763Z,99492.94
2022-12-23T21:53:47.343Z,99497.88
2022-12-23T21:56:13.828Z,99488.75
2022-12-23T21:58:40.294Z,99494.59
2022-12-23T22:01:07.005Z,99507.34
2022-12-23T22:06:18.801Z,99523.25
2022-12-23T22:08:45.315Z,99515.75
2022-12-23T22:11:11.802Z,99517.41
2022-12-23T22:13:38.339Z,99516.25
2022-12-23T22:16:05.827Z,99510.88
2022-12-23T22:21:27.504Z,99504.41
2022-12-23T22:23:54.936Z,99512.19
2022-12-23T22:26:25.449Z,99513.91
2022-12-23T22:28:53.349Z,99514.75
2022-12-23T22:31:20.927Z,99511.06
2022-12-23T22:36:43.572Z,99507.97
2022-12-23T22:39:17.633Z,99516.63
2022-12-23T22:41:47.319Z,99511.63
2022-12-23T22:44:13.865Z,99514.84
2022-12-23T22:46:40.400Z,99517.91
2022-12-23T22:51:52.110Z,99516.31
2022-12-23T22:54:19.558Z,99520.59
2022-12-23T22:56:47.008Z,99519.66
2022-12-23T22:59:13.487Z,99517.59
2022-12-23T23:01:40.902Z,99524.31
2022-12-23T23:07:02.460Z,99528.94
2022-12-23T23:09:29.000Z,99529.09
2022-12-23T23:11:56.402Z,99523.47
2022-12-23T23:14:24.578Z,99520.59
2022-12-23T23:16:51.114Z,99510.81
2022-12-23T23:22:03.552Z,99519.66
2022-12-23T23:24:31.500Z,99522.84
2022-12-23T23:26:59.152Z,99517.53
2022-12-23T23:29:26.617Z,99509.34
2022-12-23T23:31:53.198Z,99501.78
2022-12-23T23:37:04.654Z,99536.34
2022-12-23T23:39:31.169Z,99528.31
2022-12-23T23:41:57.633Z,99525.34
2022-12-23T23:44:25.091Z,99525.59
2022-12-23T23:46:51.601Z,99501.00
2022-12-23T23:52:12.191Z,99503.63
2022-12-23T23:54:38.667Z,99506.56
2022-12-23T23:57:05.121Z,99515.75
2022-12-23T23:59:31.642Z,99520.03
